sensor_id;sensor_type;location;lat;lon;timestamp;pressure;altitude;pressure_sealevel;temperature;humidity
2785;BME280;57944;48.722;9.316;2022-09-30T00:00:36;97155.00;;;6.58;100.00
2785;BME280;57944;48.722;9.316;2022-09-30T00:03:06;97159.13;;;6.66;100.00
2785;BME280;57944;48.722;9.316;2022-09-30T00:05:36;97156.22;;;6.69;100.00
2785;BME280;57944;48.722;9.316;2022-09-30T00:08:07;97157.00;;;6.76;100.00
2785;BME280;57944;48.722;9.316;2022-09-30T00:10:37;97157.41;;;6.73;100.00
2785;BME280;57944;48.722;9.316;2022-09-30T00:13:09;97158.94;;;6.74;100.00
2785;BME280;57944;48.722;9.316;2022-09-30T00:18:38;97158.78;;;6.82;100.00
2785;BME280;57944;48.722;9.316;2022-09-30T00:21:11;97164.06;;;6.81;100.00
2785;BME280;57944;48.722;9.316;2022-09-30T00:23:43;97156.69;;;6.86;100.00
2785;BME280;57944;48.722;9.316;2022-09-30T00:26:17;97159.63;;;6.89;100.00
2785;BME280;57944;48.722;9.316;2022-09-30T00:28:50;97156.53;;;6.94;100.00
2785;BME280;57944;48.722;9.316;2022-09-30T00:31:22;97161.00;;;6.99;100.00
2785;BME280;57944;48.722;9.316;2022-09-30T00:33:55;97165.81;;;6.80;100.00
2785;BME280;57944;48.722;9.316;2022-09-30T00:36:54;97163.13;;;6.88;100.00
2785;BME280;57944;48.722;9.316;2022-09-30T00:39:27;97172.34;;;7.03;100.00
2785;BME280;57944;48.722;9.316;2022-09-30T00:44:53;97180.28;;;6.93;100.00
2785;BME280;57944;48.722;9.316;2022-09-30T00:47:44;97180.84;;;6.88;100.00
2785;BME280;57944;48.722;9.316;2022-09-30T00:50:32;97188.41;;;6.82;100.00
2785;BME280;57944;48.722;9.316;2022-09-30T00:53:12;97188.84;;;6.85;100.00
2785;BME280;57944;48.722;9.316;2022-09-30T00:58:36;97196.47;;;6.99;100.00
2785;BME280;57944;48.722;9.316;2022-09-30T01:01:13;97189.84;;;6.98;100.00
2785;BME280;57944;48.722;9.316;2022-09-30T01:06:27;97188.59;;;6.80;100.00
2785;BME280;57944;48.722;9.316;2022-09-30T01:11:40;97193.28;;;6.83;100.00
2785;BME280;57944;48.722;9.316;2022-09-30T01:14:16;97194.09;;;6.90;100.00
2785;BME280;57944;48.722;9.316;2022-09-30T01:20:05;97193.56;;;7.02;100.00
2785;BME280;57944;48.722;9.316;2022-09-30T01:22:47;97198.44;;;7.03;100.00
2785;BME280;57944;48.722;9.316;2022-09-30T01:29:00;97200.44;;;7.14;100.00
2785;BME280;57944;48.722;9.316;2022-09-30T01:31:48;97200.28;;;7.23;100.00
2785;BME280;57944;48.722;9.316;2022-09-30T01:34:33;97191.53;;;7.25;100.00
2785;BME280;57944;48.722;9.316;2022-09-30T01:37:18;97191.53;;;7.25;100.00
2785;BME280;57944;48.722;9.316;2022-09-30T01:40:03;97182.84;;;7.00;100.00
2785;BME280;57944;48.722;9.316;2022-09-30T01:42:39;97184.78;;;6.98;100.00
2785;BME280;57944;48.722;9.316;2022-09-30T01:45:17;97188.84;;;6.85;100.00
2785;BME280;57944;48.722;9.316;2022-09-30T01:48:16;97185.09;;;6.81;100.00
2785;BME280;57944;48.722;9.316;2022-09-30T01:50:55;97186.78;;;6.74;100.00
2785;BME280;57944;48.722;9.316;2022-09-30T01:53:35;97187.78;;;6.73;100.00
2785;BME280;57944;48.722;9.316;2022-09-30T01:56:15;97184.66;;;6.71;100.00
2785;BME280;57944;48.722;9.316;2022-09-30T01:59:05;97185.38;;;6.58;100.00
2785;BME280;57944;48.722;9.316;2022-09-30T02:01:43;97191.97;;;6.59;100.00
2785;BME280;57944;48.722;9.316;2022-09-30T02:04:21;97197.44;;;6.63;100.00
2785;BME280;57944;48.722;9.316;2022-09-30T02:07:00;97200.97;;;6.68;100.00
2785;BME280;57944;48.722;9.316;2022-09-30T02:09:39;97211.34;;;6.74;100.00
2785;BME280;57944;48.722;9.316;2022-09-30T02:15:02;97226.47;;;6.95;100.00
2785;BME280;57944;48.722;9.316;2022-09-30T02:17:40;97227.47;;;7.01;100.00
2785;BME280;57944;48.722;9.316;2022-09-30T02:20:17;97225.75;;;7.08;100.00
2785;BME280;57944;48.722;9.316;2022-09-30T02:22:55;97226.13;;;7.05;100.00
2785;BME280;57944;48.722;9.316;2022-09-30T02:25:30;97214.34;;;6.90;100.00
2785;BME280;57944;48.722;9.316;2022-09-30T02:28:07;97213.09;;;6.73;100.00
2785;BME280;57944;48.722;9.316;2022-09-30T02:30:55;97213.50;;;6.77;100.00
2785;BME280;57944;48.722;9.316;2022-09-30T02:33:34;97217.34;;;6.66;100.00
2785;BME280;57944;48.722;9.316;2022-09-30T02:36:16;97212.63;;;6.63;100.00
2785;BME280;57944;48.722;9.316;2022-09-30T02:41:48;97218.06;;;6.60;100.00
2785;BME280;57944;48.722;9.316;2022-09-30T02:44:35;97218.59;;;6.48;100.00
2785;BME280;57944;48.722;9.316;2022-09-30T02:47:14;97223.25;;;6.45;100.00
2785;BME280;57944;48.722;9.316;2022-09-30T02:49:50;97220.19;;;6.28;100.00
2785;BME280;57944;48.722;9.316;2022-09-30T02:52:37;97219.22;;;6.29;100.00
2785;BME280;57944;48.722;9.316;2022-09-30T02:55:20;97221.03;;;6.35;100.00
2785;BME280;57944;48.722;9.316;2022-09-30T02:58:07;97224.16;;;6.37;100.00
2785;BME280;57944;48.722;9.316;2022-09-30T03:00:40;97226.91;;;6.42;100.00
2785;BME280;57944;48.722;9.316;2022-09-30T03:03:16;97230.44;;;6.41;100.00
2785;BME280;57944;48.722;9.316;2022-09-30T03:05:49;97238.84;;;6.48;100.00
2785;BME280;57944;48.722;9.316;2022-09-30T03:08:19;97240.78;;;6.46;100.00
2785;BME280;57944;48.722;9.316;2022-09-30T03:10:51;97250.66;;;6.41;100.00
2785;BME280;57944;48.722;9.316;2022-09-30T03:16:52;97250.34;;;6.51;100.00
2785;BME280;57944;48.722;9.316;2022-09-30T03:19:40;97253.50;;;6.60;100.00
2785;BME280;57944;48.722;9.316;2022-09-30T03:22:38;97257.13;;;6.72;100.00
2785;BME280;57944;48.722;9.316;2022-09-30T03:25:27;97259.13;;;6.83;100.00
2785;BME280;57944;48.722;9.316;2022-09-30T03:28:14;97266.75;;;6.83;100.00
2785;BME280;57944;48.722;9.316;2022-09-30T03:31:01;97269.03;;;6.78;100.00
2785;BME280;57944;48.722;9.316;2022-09-30T03:33:44;97279.41;;;6.83;100.00
2785;BME280;57944;48.722;9.316;2022-09-30T03:36:25;97279.41;;;6.83;100.00
2785;BME280;57944;48.722;9.316;2022-09-30T03:39:04;97284.09;;;6.86;100.00
2785;BME280;57944;48.722;9.316;2022-09-30T03:41:44;97278.78;;;6.81;100.00
2785;BME280;57944;48.722;9.316;2022-09-30T03:44:24;97274.28;;;6.77;100.00
2785;BME280;57944;48.722;9.316;2022-09-30T03:47:04;97277.38;;;6.72;100.00
2785;BME280;57944;48.722;9.316;2022-09-30T03:49:41;97287.50;;;6.72;100.00
2785;BME280;57944;48.722;9.316;2022-09-30T03:52:15;97282.00;;;6.68;100.00
2785;BME280;57944;48.722;9.316;2022-09-30T03:54:51;97282.81;;;6.69;100.00
2785;BME280;57944;48.722;9.316;2022-09-30T03:57:25;97285.34;;;6.69;100.00
2785;BME280;57944;48.722;9.316;2022-09-30T03:59:56;97280.84;;;6.71;100.00
2785;BME280;57944;48.722;9.316;2022-09-30T04:02:29;97282.84;;;6.76;100.00
2785;BME280;57944;48.722;9.316;2022-09-30T04:04:59;97285.16;;;6.70;100.00
2785;BME280;57944;48.722;9.316;2022-09-30T04:07:29;97283.59;;;6.69;100.00
2785;BME280;57944;48.722;9.316;2022-09-30T04:09:59;97287.50;;;6.72;100.00
2785;BME280;57944;48.722;9.316;2022-09-30T04:12:29;97292.94;;;6.69;100.00
2785;BME280;57944;48.722;9.316;2022-09-30T04:15:00;97293.88;;;6.68;100.00
2785;BME280;57944;48.722;9.316;2022-09-30T04:17:32;97297.03;;;6.70;100.00
2785;BME280;57944;48.722;9.316;2022-09-30T04:20:03;97306.53;;;6.68;100.00
2785;BME280;57944;48.722;9.316;2022-09-30T04:22:34;97312.72;;;6.59;100.00
2785;BME280;57944;48.722;9.316;2022-09-30T04:25:06;97315.09;;;6.60;100.00
2785;BME280;57944;48.722;9.316;2022-09-30T04:27:37;97314.09;;;6.61;100.00
2785;BME280;57944;48.722;9.316;2022-09-30T04:30:08;97318.03;;;6.64;100.00
2785;BME280;57944;48.722;9.316;2022-09-30T04:32:44;97315.13;;;6.67;100.00
2785;BME280;57944;48.722;9.316;2022-09-30T04:35:14;97318.25;;;6.69;100.00
2785;BME280;57944;48.722;9.316;2022-09-30T04:37:46;97321.69;;;6.61;100.00
2785;BME280;57944;48.722;9.316;2022-09-30T04:40:16;97318.94;;;6.56;100.00
2785;BME280;57944;48.722;9.316;2022-09-30T04:42:47;97319.72;;;6.35;100.00
2785;BME280;57944;48.722;9.316;2022-09-30T04:45:17;97326.22;;;6.23;100.00
2785;BME280;57944;48.722;9.316;2022-09-30T04:47:50;97323.75;;;6.08;100.00
2785;BME280;57944;48.722;9.316;2022-09-30T04:50:20;97322.00;;;6.09;100.00
2785;BME280;57944;48.722;9.316;2022-09-30T04:52:50;97330.47;;;6.01;100.00
2785;BME280;57944;48.722;9.316;2022-09-30T04:55:23;97327.66;;;6.11;100.00
2785;BME280;57944;48.722;9.316;2022-09-30T04:57:53;97334.72;;;6.37;100.00
2785;BME280;57944;48.722;9.316;2022-09-30T05:00:23;97341.41;;;6.44;100.00
2785;BME280;57944;48.722;9.316;2022-09-30T05:02:56;97340.41;;;6.60;100.00
2785;BME280;57944;48.722;9.316;2022-09-30T05:05:26;97335.75;;;6.64;100.00
2785;BME280;57944;48.722;9.316;2022-09-30T05:08:00;97341.94;;;6.61;100.00
2785;BME280;57944;48.722;9.316;2022-09-30T05:10:31;97348.13;;;6.52;100.00
2785;BME280;57944;48.722;9.316;2022-09-30T05:13:01;97355.63;;;6.45;100.00
2785;BME280;57944;48.722;9.316;2022-09-30T05:15:34;97359.25;;;6.36;100.00
2785;BME280;57944;48.722;9.316;2022-09-30T05:18:06;97361.78;;;6.36;100.00
2785;BME280;57944;48.722;9.316;2022-09-30T05:20:36;97359.75;;;6.46;100.00
2785;BME280;57944;48.722;9.316;2022-09-30T05:23:06;97356.38;;;6.61;100.00
2785;BME280;57944;48.722;9.316;2022-09-30T05:25:37;97369.25;;;6.66;100.00
2785;BME280;57944;48.722;9.316;2022-09-30T05:28:07;97369.03;;;6.61;100.00
2785;BME280;57944;48.722;9.316;2022-09-30T05:30:38;97374.19;;;6.53;100.00
2785;BME280;57944;48.722;9.316;2022-09-30T05:33:12;97371.91;;;6.58;100.00
2785;BME280;57944;48.722;9.316;2022-09-30T05:35:42;97361.16;;;6.34;100.00
2785;BME280;57944;48.722;9.316;2022-09-30T05:38:13;97367.69;;;6.22;100.00
2785;BME280;57944;48.722;9.316;2022-09-30T05:40:43;97373.38;;;6.09;100.00
2785;BME280;57944;48.722;9.316;2022-09-30T05:43:14;97373.31;;;6.02;100.00
2785;BME280;57944;48.722;9.316;2022-09-30T05:45:52;97380.28;;;6.00;100.00
2785;BME280;57944;48.722;9.316;2022-09-30T05:48:25;97387.59;;;5.95;100.00
2785;BME280;57944;48.722;9.316;2022-09-30T05:50:57;97380.34;;;5.92;100.00
2785;BME280;57944;48.722;9.316;2022-09-30T05:53:28;97386.66;;;5.96;100.00
2785;BME280;57944;48.722;9.316;2022-09-30T05:55:59;97381.84;;;6.01;100.00
2785;BME280;57944;48.722;9.316;2022-09-30T05:58:29;97382.66;;;6.23;100.00
2785;BME280;57944;48.722;9.316;2022-09-30T06:01:05;97385.75;;;6.40;100.00
2785;BME280;57944;48.722;9.316;2022-09-30T06:03:43;97394.69;;;6.58;100.00
2785;BME280;57944;48.722;9.316;2022-09-30T06:06:15;97393.28;;;6.77;100.00
2785;BME280;57944;48.722;9.316;2022-09-30T06:08:46;97396.00;;;6.97;100.00
2785;BME280;57944;48.722;9.316;2022-09-30T06:11:18;97393.28;;;7.26;100.00
2785;BME280;57944;48.722;9.316;2022-09-30T06:13:51;97404.66;;;7.37;100.00
2785;BME280;57944;48.722;9.316;2022-09-30T06:16:22;97402.00;;;7.45;100.00
2785;BME280;57944;48.722;9.316;2022-09-30T06:18:55;97407.69;;;7.54;100.00
2785;BME280;57944;48.722;9.316;2022-09-30T06:21:25;97406.16;;;7.59;100.00
2785;BME280;57944;48.722;9.316;2022-09-30T06:23:55;97406.22;;;7.66;100.00
2785;BME280;57944;48.722;9.316;2022-09-30T06:26:25;97419.09;;;7.71;100.00
2785;BME280;57944;48.722;9.316;2022-09-30T06:28:56;97426.63;;;7.93;100.00
2785;BME280;57944;48.722;9.316;2022-09-30T06:31:26;97428.25;;;8.07;100.00
2785;BME280;57944;48.722;9.316;2022-09-30T06:33:59;97428.69;;;8.24;100.00
2785;BME280;57944;48.722;9.316;2022-09-30T06:36:31;97433.81;;;8.31;100.00
2785;BME280;57944;48.722;9.316;2022-09-30T06:39:03;97440.84;;;8.28;100.00
2785;BME280;57944;48.722;9.316;2022-09-30T06:41:38;97450.69;;;8.45;100.00
2785;BME280;57944;48.722;9.316;2022-09-30T06:44:18;97452.66;;;8.56;100.00
2785;BME280;57944;48.722;9.316;2022-09-30T06:46:48;97466.38;;;8.68;100.00
2785;BME280;57944;48.722;9.316;2022-09-30T06:49:22;97467.56;;;8.79;100.00
2785;BME280;57944;48.722;9.316;2022-09-30T06:52:03;97457.75;;;8.63;100.00
2785;BME280;57944;48.722;9.316;2022-09-30T06:54:33;97467.69;;;8.51;100.00
2785;BME280;57944;48.722;9.316;2022-09-30T06:57:03;97468.31;;;8.60;100.00
2785;BME280;57944;48.722;9.316;2022-09-30T06:59:34;97475.97;;;8.73;100.00
2785;BME280;57944;48.722;9.316;2022-09-30T07:02:04;97473.78;;;8.63;100.00
2785;BME280;57944;48.722;9.316;2022-09-30T07:04:37;97484.34;;;8.73;100.00
2785;BME280;57944;48.722;9.316;2022-09-30T07:07:07;97487.72;;;8.81;100.00
2785;BME280;57944;48.722;9.316;2022-09-30T07:09:38;97487.09;;;8.72;100.00
2785;BME280;57944;48.722;9.316;2022-09-30T07:12:09;97483.19;;;8.83;100.00
2785;BME280;57944;48.722;9.316;2022-09-30T07:14:39;97483.19;;;8.83;100.00
2785;BME280;57944;48.722;9.316;2022-09-30T07:17:10;97488.69;;;8.93;100.00
2785;BME280;57944;48.722;9.316;2022-09-30T07:19:42;97500.47;;;9.21;100.00
2785;BME280;57944;48.722;9.316;2022-09-30T07:22:12;97499.69;;;9.40;100.00
2785;BME280;57944;48.722;9.316;2022-09-30T07:25:03;97489.88;;;9.63;100.00
2785;BME280;57944;48.722;9.316;2022-09-30T07:27:33;97498.09;;;9.92;100.00
2785;BME280;57944;48.722;9.316;2022-09-30T07:30:05;97496.44;;;10.18;100.00
2785;BME280;57944;48.722;9.316;2022-09-30T07:32:44;97507.41;;;10.32;100.00
2785;BME280;57944;48.722;9.316;2022-09-30T07:35:17;97511.69;;;10.38;100.00
2785;BME280;57944;48.722;9.316;2022-09-30T07:37:47;97511.53;;;10.71;100.00
2785;BME280;57944;48.722;9.316;2022-09-30T07:40:17;97515.34;;;10.93;100.00
2785;BME280;57944;48.722;9.316;2022-09-30T07:42:47;97511.47;;;10.84;100.00
2785;BME280;57944;48.722;9.316;2022-09-30T07:45:18;97513.81;;;11.93;100.00
2785;BME280;57944;48.722;9.316;2022-09-30T07:47:48;97518.25;;;13.13;100.00
2785;BME280;57944;48.722;9.316;2022-09-30T07:50:22;97522.66;;;14.18;100.00
2785;BME280;57944;48.722;9.316;2022-09-30T07:52:52;97526.28;;;15.20;100.00
2785;BME280;57944;48.722;9.316;2022-09-30T07:55:22;97526.97;;;16.00;100.00
2785;BME280;57944;48.722;9.316;2022-09-30T07:57:52;97530.69;;;16.31;93.34
2785;BME280;57944;48.722;9.316;2022-09-30T08:00:22;97544.13;;;16.60;91.77
2785;BME280;57944;48.722;9.316;2022-09-30T08:03:09;97544.94;;;17.15;80.21
2785;BME280;57944;48.722;9.316;2022-09-30T08:05:42;97548.81;;;17.82;74.24
2785;BME280;57944;48.722;9.316;2022-09-30T08:08:16;97552.09;;;18.15;70.08
2785;BME280;57944;48.722;9.316;2022-09-30T08:10:47;97547.31;;;18.49;66.35
2785;BME280;57944;48.722;9.316;2022-09-30T08:13:17;97552.03;;;18.04;65.31
2785;BME280;57944;48.722;9.316;2022-09-30T08:15:48;97545.91;;;17.36;70.28
2785;BME280;57944;48.722;9.316;2022-09-30T08:18:18;97546.22;;;16.85;72.74
2785;BME280;57944;48.722;9.316;2022-09-30T08:20:50;97549.56;;;15.98;80.91
2785;BME280;57944;48.722;9.316;2022-09-30T08:23:21;97546.53;;;15.50;85.49
2785;BME280;57944;48.722;9.316;2022-09-30T08:25:51;97550.50;;;15.07;90.08
2785;BME280;57944;48.722;9.316;2022-09-30T08:28:21;97542.69;;;15.02;88.96
2785;BME280;57944;48.722;9.316;2022-09-30T08:30:51;97543.44;;;14.34;95.30
2785;BME280;57944;48.722;9.316;2022-09-30T08:33:21;97549.97;;;13.89;99.14
2785;BME280;57944;48.722;9.316;2022-09-30T08:35:54;97551.06;;;13.70;100.00
2785;BME280;57944;48.722;9.316;2022-09-30T08:38:24;97557.41;;;13.79;100.00
2785;BME280;57944;48.722;9.316;2022-09-30T08:41:16;97552.31;;;14.02;100.00
2785;BME280;57944;48.722;9.316;2022-09-30T08:44:05;97545.47;;;14.31;99.65
2785;BME280;57944;48.722;9.316;2022-09-30T08:46:46;97545.13;;;14.28;98.07
2785;BME280;57944;48.722;9.316;2022-09-30T08:49:47;97543.31;;;13.76;100.00
2785;BME280;57944;48.722;9.316;2022-09-30T08:52:28;97546.41;;;13.78;100.00
2785;BME280;57944;48.722;9.316;2022-09-30T08:55:20;97541.41;;;13.72;100.00
2785;BME280;57944;48.722;9.316;2022-09-30T08:57:54;97552.88;;;13.81;100.00
2785;BME280;57944;48.722;9.316;2022-09-30T09:00:25;97549.28;;;14.05;100.00
2785;BME280;57944;48.722;9.316;2022-09-30T09:02:57;97546.69;;;14.29;100.00
2785;BME280;57944;48.722;9.316;2022-09-30T09:05:43;97549.41;;;14.74;99.39
2785;BME280;57944;48.722;9.316;2022-09-30T09:08:30;97555.56;;;15.19;93.89
2785;BME280;57944;48.722;9.316;2022-09-30T09:11:15;97553.25;;;15.68;89.66
2785;BME280;57944;48.722;9.316;2022-09-30T09:13:56;97550.13;;;16.22;83.55
2785;BME280;57944;48.722;9.316;2022-09-30T09:16:34;97554.31;;;16.72;79.04
2785;BME280;57944;48.722;9.316;2022-09-30T09:19:09;97561.00;;;17.27;74.69
2785;BME280;57944;48.722;9.316;2022-09-30T09:21:51;97557.97;;;17.68;70.26
2785;BME280;57944;48.722;9.316;2022-09-30T09:24:28;97563.66;;;17.70;70.35
2785;BME280;57944;48.722;9.316;2022-09-30T09:27:00;97565.00;;;18.20;67.59
2785;BME280;57944;48.722;9.316;2022-09-30T09:29:50;97569.81;;;18.69;63.49
2785;BME280;57944;48.722;9.316;2022-09-30T09:32:25;97576.16;;;19.09;61.70
2785;BME280;57944;48.722;9.316;2022-09-30T09:35:01;97575.63;;;19.83;57.29
2785;BME280;57944;48.722;9.316;2022-09-30T09:37:46;97570.72;;;21.51;52.20
2785;BME280;57944;48.722;9.316;2022-09-30T09:40:46;97570.28;;;21.68;49.70
2785;BME280;57944;48.722;9.316;2022-09-30T09:43:41;97566.22;;;22.77;47.46
2785;BME280;57944;48.722;9.316;2022-09-30T09:46:23;97576.94;;;23.27;46.19
2785;BME280;57944;48.722;9.316;2022-09-30T09:49:32;97568.44;;;24.01;44.39
2785;BME280;57944;48.722;9.316;2022-09-30T09:52:46;97565.53;;;24.16;44.10
2785;BME280;57944;48.722;9.316;2022-09-30T09:55:21;97571.53;;;22.00;48.30
2785;BME280;57944;48.722;9.316;2022-09-30T09:58:10;97568.97;;;21.36;50.36
2785;BME280;57944;48.722;9.316;2022-09-30T10:00:41;97574.41;;;20.51;52.86
2785;BME280;57944;48.722;9.316;2022-09-30T10:03:25;97564.00;;;20.61;53.67
2785;BME280;57944;48.722;9.316;2022-09-30T10:06:03;97564.75;;;21.51;51.29
2785;BME280;57944;48.722;9.316;2022-09-30T10:08:36;97573.56;;;22.70;48.40
2785;BME280;57944;48.722;9.316;2022-09-30T10:11:19;97569.19;;;24.57;43.83
2785;BME280;57944;48.722;9.316;2022-09-30T10:13:57;97573.03;;;24.59;41.23
2785;BME280;57944;48.722;9.316;2022-09-30T10:16:32;97574.13;;;24.30;42.29
2785;BME280;57944;48.722;9.316;2022-09-30T10:19:17;97579.03;;;24.82;42.32
2785;BME280;57944;48.722;9.316;2022-09-30T10:21:48;97577.69;;;23.79;41.44
2785;BME280;57944;48.722;9.316;2022-09-30T10:24:28;97580.03;;;23.29;43.46
2785;BME280;57944;48.722;9.316;2022-09-30T10:26:59;97581.44;;;23.40;44.90
2785;BME280;57944;48.722;9.316;2022-09-30T10:29:34;97575.94;;;23.89;41.59
2785;BME280;57944;48.722;9.316;2022-09-30T10:32:07;97574.13;;;24.30;41.67
2785;BME280;57944;48.722;9.316;2022-09-30T10:34:41;97587.88;;;24.72;40.40
2785;BME280;57944;48.722;9.316;2022-09-30T10:37:17;97584.75;;;23.60;39.44
2785;BME280;57944;48.722;9.316;2022-09-30T10:39:56;97585.53;;;23.09;41.96
2785;BME280;57944;48.722;9.316;2022-09-30T10:42:31;97593.28;;;23.47;42.30
2785;BME280;57944;48.722;9.316;2022-09-30T10:45:18;97579.63;;;22.84;43.31
2785;BME280;57944;48.722;9.316;2022-09-30T10:47:52;97585.66;;;22.61;43.38
2785;BME280;57944;48.722;9.316;2022-09-30T10:50:25;97581.94;;;22.67;42.57
2785;BME280;57944;48.722;9.316;2022-09-30T10:53:00;97580.38;;;23.74;40.56
2785;BME280;57944;48.722;9.316;2022-09-30T10:55:35;97584.91;;;23.82;40.07
2785;BME280;57944;48.722;9.316;2022-09-30T10:58:28;97587.19;;;22.62;42.74
2785;BME280;57944;48.722;9.316;2022-09-30T11:01:11;97579.06;;;21.43;44.60
2785;BME280;57944;48.722;9.316;2022-09-30T11:03:55;97577.75;;;21.75;43.78
2785;BME280;57944;48.722;9.316;2022-09-30T11:06:30;97586.22;;;22.58;39.76
2785;BME280;57944;48.722;9.316;2022-09-30T11:09:05;97574.47;;;22.41;40.08
2785;BME280;57944;48.722;9.316;2022-09-30T11:11:44;97581.69;;;22.44;41.07
2785;BME280;57944;48.722;9.316;2022-09-30T11:14:30;97570.22;;;22.69;38.24
2785;BME280;57944;48.722;9.316;2022-09-30T11:17:24;97573.25;;;24.21;37.82
2785;BME280;57944;48.722;9.316;2022-09-30T11:20:11;97567.97;;;24.13;35.43
2785;BME280;57944;48.722;9.316;2022-09-30T11:22:52;97568.91;;;23.75;36.28
2785;BME280;57944;48.722;9.316;2022-09-30T11:25:36;97570.66;;;24.21;36.74
2785;BME280;57944;48.722;9.316;2022-09-30T11:28:39;97571.44;;;25.08;35.12
2785;BME280;57944;48.722;9.316;2022-09-30T11:31:24;97569.19;;;24.57;36.32
2785;BME280;57944;48.722;9.316;2022-09-30T11:34:31;97572.41;;;25.35;33.85
2785;BME280;57944;48.722;9.316;2022-09-30T11:37:15;97561.94;;;24.40;35.69
2785;BME280;57944;48.722;9.316;2022-09-30T11:40:10;97565.63;;;24.11;36.43
2785;BME280;57944;48.722;9.316;2022-09-30T11:42:53;97573.09;;;24.68;35.39
2785;BME280;57944;48.722;9.316;2022-09-30T11:45:38;97576.66;;;24.86;34.13
2785;BME280;57944;48.722;9.316;2022-09-30T11:48:39;97572.09;;;25.90;32.26
2785;BME280;57944;48.722;9.316;2022-09-30T11:51:22;97570.69;;;25.84;32.35
2785;BME280;57944;48.722;9.316;2022-09-30T11:54:16;97575.38;;;27.23;30.42
2785;BME280;57944;48.722;9.316;2022-09-30T11:56:58;97568.47;;;25.46;30.99
2785;BME280;57944;48.722;9.316;2022-09-30T11:59:48;97569.00;;;25.12;31.85
2785;BME280;57944;48.722;9.316;2022-09-30T12:02:30;97568.41;;;25.37;32.40
2785;BME280;57944;48.722;9.316;2022-09-30T12:05:11;97563.25;;;25.01;31.98
2785;BME280;57944;48.722;9.316;2022-09-30T12:07:53;97568.41;;;24.56;31.43
2785;BME280;57944;48.722;9.316;2022-09-30T12:10:32;97573.88;;;25.50;30.41
2785;BME280;57944;48.722;9.316;2022-09-30T12:13:10;97570.72;;;24.94;32.40
2785;BME280;57944;48.722;9.316;2022-09-30T12:15:43;97571.31;;;24.91;31.38
2785;BME280;57944;48.722;9.316;2022-09-30T12:18:19;97565.41;;;25.44;31.20
2785;BME280;57944;48.722;9.316;2022-09-30T12:20:55;97565.28;;;25.27;32.36
2785;BME280;57944;48.722;9.316;2022-09-30T12:23:39;97555.53;;;24.96;30.21
2785;BME280;57944;48.722;9.316;2022-09-30T12:26:15;97561.59;;;24.83;31.75
2785;BME280;57944;48.722;9.316;2022-09-30T12:28:51;97562.53;;;24.87;31.58
2785;BME280;57944;48.722;9.316;2022-09-30T12:31:59;97555.25;;;23.64;33.06
2785;BME280;57944;48.722;9.316;2022-09-30T12:34:50;97553.72;;;22.79;35.42
2785;BME280;57944;48.722;9.316;2022-09-30T12:37:45;97549.00;;;20.63;38.00
2785;BME280;57944;48.722;9.316;2022-09-30T12:40:46;97564.03;;;19.66;40.21
2785;BME280;57944;48.722;9.316;2022-09-30T12:43:49;97557.97;;;18.73;42.10
2785;BME280;57944;48.722;9.316;2022-09-30T12:46:47;97553.75;;;17.94;45.36
2785;BME280;57944;48.722;9.316;2022-09-30T12:49:22;97559.56;;;17.74;45.33
2785;BME280;57944;48.722;9.316;2022-09-30T12:51:57;97557.22;;;17.35;46.96
2785;BME280;57944;48.722;9.316;2022-09-30T12:54:32;97548.56;;;16.87;46.81
2785;BME280;57944;48.722;9.316;2022-09-30T12:57:08;97548.91;;;16.51;47.96
2785;BME280;57944;48.722;9.316;2022-09-30T12:59:54;97554.97;;;16.40;48.44
2785;BME280;57944;48.722;9.316;2022-09-30T13:02:38;97547.31;;;16.23;50.70
2785;BME280;57944;48.722;9.316;2022-09-30T13:05:46;97565.25;;;16.40;48.20
2785;BME280;57944;48.722;9.316;2022-09-30T13:08:42;97554.91;;;16.35;48.21
2785;BME280;57944;48.722;9.316;2022-09-30T13:11:39;97556.53;;;16.41;48.37
2785;BME280;57944;48.722;9.316;2022-09-30T13:14:29;97559.97;;;16.74;48.71
2785;BME280;57944;48.722;9.316;2022-09-30T13:17:26;97557.66;;;17.27;44.86
2785;BME280;57944;48.722;9.316;2022-09-30T13:19:56;97556.84;;;17.53;45.34
2785;BME280;57944;48.722;9.316;2022-09-30T13:22:56;97558.97;;;17.61;43.87
2785;BME280;57944;48.722;9.316;2022-09-30T13:25:52;97557.63;;;17.86;43.03
2785;BME280;57944;48.722;9.316;2022-09-30T13:28:28;97565.31;;;18.34;42.28
2785;BME280;57944;48.722;9.316;2022-09-30T13:31:16;97564.47;;;18.18;41.07
2785;BME280;57944;48.722;9.316;2022-09-30T13:34:09;97569.06;;;17.68;41.38
2785;BME280;57944;48.722;9.316;2022-09-30T13:36:58;97563.50;;;17.49;42.49
2785;BME280;57944;48.722;9.316;2022-09-30T13:39:30;97570.31;;;17.28;43.50
2785;BME280;57944;48.722;9.316;2022-09-30T13:42:23;97568.41;;;17.18;44.30
2785;BME280;57944;48.722;9.316;2022-09-30T13:45:03;97562.69;;;17.11;44.48
2785;BME280;57944;48.722;9.316;2022-09-30T13:47:43;97555.63;;;16.74;44.29
2785;BME280;57944;48.722;9.316;2022-09-30T13:50:18;97562.03;;;16.72;45.46
2785;BME280;57944;48.722;9.316;2022-09-30T13:52:53;97564.00;;;16.65;44.97
2785;BME280;57944;48.722;9.316;2022-09-30T13:55:32;97561.41;;;16.65;45.43
2785;BME280;57944;48.722;9.316;2022-09-30T13:58:33;97569.50;;;16.29;46.65
2785;BME280;57944;48.722;9.316;2022-09-30T14:01:21;97562.50;;;16.25;47.03
2785;BME280;57944;48.722;9.316;2022-09-30T14:07:16;97565.81;;;16.03;47.10
2785;BME280;57944;48.722;9.316;2022-09-30T14:10:19;97567.88;;;15.84;48.35
2785;BME280;57944;48.722;9.316;2022-09-30T14:13:13;97569.75;;;15.72;48.37
2785;BME280;57944;48.722;9.316;2022-09-30T14:16:11;97567.88;;;15.84;47.80
2785;BME280;57944;48.722;9.316;2022-09-30T14:19:36;97561.78;;;16.07;48.09
2785;BME280;57944;48.722;9.316;2022-09-30T14:22:13;97568.97;;;15.89;47.91
2785;BME280;57944;48.722;9.316;2022-09-30T14:24:45;97570.97;;;16.03;48.28
2785;BME280;57944;48.722;9.316;2022-09-30T14:27:41;97578.44;;;16.05;48.28
2785;BME280;57944;48.722;9.316;2022-09-30T14:30:19;97579.97;;;16.23;48.14
2785;BME280;57944;48.722;9.316;2022-09-30T14:32:54;97584.56;;;16.43;46.72
2785;BME280;57944;48.722;9.316;2022-09-30T14:35:31;97580.16;;;16.38;46.61
2785;BME280;57944;48.722;9.316;2022-09-30T14:38:05;97587.91;;;16.21;46.59
2785;BME280;57944;48.722;9.316;2022-09-30T14:40:40;97576.81;;;15.99;47.44
2785;BME280;57944;48.722;9.316;2022-09-30T14:43:21;97585.16;;;15.89;48.18